AirNav   $300 off a Bose A20
 
 1128 users online  

08NJ St Barnabas Medical Center Heliport
Livingston, New Jersey, USA

GOING TO LIVINGSTON?


FAA INFORMATION EFFECTIVE 18 JULY 2019

Location

FAA Identifier: 08NJ
Lat/Long: 40-45-45.3620N / 074-18-14.5340W
40-45.756033N / 074-18.242233W
40.7626006 / -74.3040372
(estimated)
Elevation: 429 ft. / 130.8 m (surveyed)
Variation: 12W (1985)
Time zone: UTC -4 (UTC -5 during Standard Time)
Zip code: 07039

Heliport Operations

Heliport use: Private use, MEDICAL USE.
Activation date: 05/1989
Control tower: no
ARTCC: NEW YORK CENTER
FSS: MILLVILLE FLIGHT SERVICE STATION
Attendance: CONTINUOUS
Wind indicator: lighted
Segmented circle: no

Heliport Communications

WX AWOS-3 at MMU (5 nm NW): PHONE 973-290-0135
WX ASOS at CDW (7 nm N): 135.5 (973-575-4417)
WX ASOS at EWR (7 nm SE): PHONE 973-621-2892
WX AWOS-3 at LDJ (9 nm S): 124.025 (908-862-7383)
WX ASOS at TEB (12 nm NE): 132.025 (201-393-0855)
WX AWOS-3PT at JRB (14 nm E): 128.175 (212-425-1534)
WX ASOS at SMQ (19 nm SW): 120.6 (908-722-2139)
WX ASOS at LGA (20 nm E): PHONE 718-672-6317

Nearby radio navigation aids

VOR radial/distance  VOR name  Freq  Var
TEBr256/12.1TETERBORO VOR/DME108.4011W
LGAr278/19.8LA GUARDIA VOR/DME113.1012W
CRIr307/20.7CANARSIE VOR/DME112.3011W
SAXr161/21.2SPARTA VORTAC115.7011W
SBJr072/22.6SOLBERG VOR/DME112.9010W
BWZr106/23.6BROADWAY VOR/DME114.2011W
JFKr300/25.4KENNEDY VOR/DME115.9012W
COLr357/27.8COLTS NECK VOR/DME115.4011W
STWr130/29.2STILLWATER VOR/DME109.6011W
RBVr025/34.7ROBBINSVILLE VORTAC113.8010W

 
NDB name  Hdg/Dist  Freq  Var  ID
CHATHAM090/5.925413WCAT -.-. .- -
TORBY264/8.221412WTE - .

Heliport Services

Runway Information

Helipad H1

Dimensions: 90 x 90 ft. / 27 x 27 m
Surface: asphalt
Latitude: 40-45.756033N
Longitude: 074-18.242233W
Elevation: 429.0 ft.
Traffic pattern: leftleft

Heliport Ownership and Management from official FAA records

Ownership: Privately-owned
Owner: ST BARNABAS MEDICAL CENTER
94 OLD SHORT HILLS RD
LIVINGSTON, NJ 07039
Phone 973-322-5000
Manager: MICHAEL MITCHELL, DIRECTOR
94 OLD SHORT HILLS RD
LIVINGSTON, NJ 07039
Phone 973-322-2617

Additional Remarks

FOR CD CTC NEW YORK APCH AT 800-645-3206.

Instrument Procedures

There are no published instrument procedures at 08NJ.

Some nearby airports with instrument procedures:

KMMU - Morristown Municipal Airport (5 nm NW)
KCDW - Essex County Airport (7 nm N)
KEWR - Newark Liberty International Airport (7 nm SE)
KLDJ - Linden Airport (9 nm S)
N07 - Lincoln Park Airport (11 nm N)
KTEB - Teterboro Airport (12 nm NE)
KJRA - West 30th St Heliport (14 nm E)
KJRB - Downtown Manhattan/Wall Street Heliport (14 nm E)
6N5 - East 34th Street Heliport (15 nm E)
KSMQ - Somerset Airport (19 nm SW)
 
Loc | Ops | Rwys | IFR | FBO | Links
Com | Nav | Svcs | Stats | Notes
Area around 08NJ (St Barnabas Medical Center Heliport)
 
Road maps at: MapQuest Bing Google
 
Aerial photo
No photo
 
Sectional chart

 
Airport distance calculator
Flying to St Barnabas Medical Center Heliport? Find the distance to fly.

From to 08NJ

Sunrise and sunset
Times for 18-Jul-2019
 Local
(UTC-4)
 Zulu
(UTC)
Morning civil twilight05:1009:10
Sunrise05:4209:42
Sunset20:2500:25
Evening civil twilight20:5700:57

Current date and time
Zulu (UTC)  18-Jul-2019 12:32:59
Local (UTC-4)  18-Jul-2019 08:32:59
 
METAR
KMMU 
5nm W 
181145Z 00000KT 3SM -RA BR BKN004 OVC013 23/23 A2992
KCDW 
7nm N 
181205Z 00000KT 3SM -RA BR BKN008 BKN032 OVC048 24/24 A2992 RMK AO2 P0001 T02440239
KEWR 
8nm SE 
181222Z 04004KT 1SM R04R/4500VP6000FT -RA BR FEW009 SCT014 OVC029 24/23 A2990 RMK AO2 SFC VIS 4 RAB1155 P0020 T02390228 $
KLDJ 
9nm S 
181215Z AUTO 00000KT 10SM SCT012 BKN047 OVC070 25/23 A2990 RMK AO2 T02450225
KTEB 
13nm NE 
181213Z 19003KT 1 1/2SM R06/3000VP6000FT RA BR OVC014 25/22 A2990 RMK AO2 DZB1153E1156RAB1156 P0000 T02500222
KJRB 
14nm E 
181156Z AUTO 22004KT 10SM FEW014 OVC050 24/23 A2991 RMK AO2 PK WND 29049/1142 SLP128 60004 70072 T02390228 10244 20233 50005
KNYC 
15nm E 
181222Z AUTO 31003KT 7SM -RA FEW024 BKN029 OVC050 24/23 A2994 RMK AO2 RAB20 P0000 T02390228 $
KSMQ 
19nm SW 
ASOS 120.60 908-722-2139
181213Z AUTO 36004KT 7SM SCT012 SCT043 OVC065 24/23 A2988 RMK AO2 T02440233
KLGA 
19nm E 
181151Z VRB05KT 10SM BKN018 OVC025 24/22 A2990 RMK AO2 SLP124 60002 70269 T02440222 10250 20239 53004
TAF
KEWR 
8nm SE 
181128Z 1812/1918 VRB03KT P6SM VCSH FEW008 BKN015 TEMPO 1812/1814 5SM -SHRA BR FM181400 05007KT P6SM VCSH BKN015 FM181700 09008KT P6SM VCTS BKN030CB TEMPO 1818/1822 3SM SHRA SCT015 BKN035 FM190000 06006KT P6SM VCSH BKN035 FM190400 05004KT 6SM BR BKN015 FM191500 21005KT P6SM SCT015 SCT250
KTEB 
13nm NE 
181128Z 1812/1918 VRB02KT P6SM VCSH SCT015 BKN025 TEMPO 1812/1814 4SM -SHRA BR BKN015 FM181400 05004KT P6SM VCSH BKN020 FM181700 09006KT P6SM VCTS SCT020 BKN030CB TEMPO 1818/1822 3SM SHRA SCT015 BKN035 FM190000 VRB03KT P6SM VCSH BKN025 FM190500 VRB02KT 6SM BR BKN015 FM191500 21005KT P6SM SCT015 SCT250
KLGA 
19nm E 
181128Z 1812/1918 VRB05KT P6SM VCSH SCT015 BKN020 TEMPO 1812/1814 6SM -SHRA BR BKN015 FM181400 09007KT P6SM VCSH BKN020 FM181700 05008KT P6SM VCTS BKN030CB TEMPO 1818/1822 3SM SHRA SCT015 BKN035 FM190000 07008KT P6SM VCSH BKN025 FM190500 05004KT 6SM BR BKN015 FM191500 05006KT P6SM SCT015 SCT250
NOTAMs
Click for the latest NOTAMs
NOTAMs are issued by the DoD/FAA and will open in a separate window not controlled by AirNav.

 

 
 

Would you like to see your business listed on this page?

 If your business provides an interesting product or service to pilots, flight crews, aircraft, or users of the St Barnabas Medical Center Heliport, you should consider listing it here.  To start the listing process, click on the button below
 
Add a business
 

Other Pages about St Barnabas Medical Center Heliport

Update a link
 
Copyright © AirNav, LLC. All rights reserved. Privacy Policy  Contact